Time;durP1;ratioP1;P1;durP2;ratioP2;P2;SDS_P1;SDS_P2;PMS_P1;PMS_P2;Temp;Humidity;BMP_temperature;BMP_pressure;BME280_temperature;BME280_humidity;BME280_pressure;Samples;Min_cycle;Max_cycle;Signal;HPM_P1;HPM_P2
2023/04/20 00:01:39;;;;;;;;;;;21.50;57.30;;;;;;1575235;74;719;-63
2023/04/20 00:03:41;;;;;;;;;;;21.50;57.20;;;;;;1568850;74;959;-62
2023/04/20 00:05:44;;;;;;;;;;;21.60;57.00;;;;;;1548653;74;1627;-63
2023/04/20 00:07:47;;;;;;;;;;;21.60;57.20;;;;;;1548375;75;715;-62
2023/04/20 00:09:49;;;;;;;;;;;21.60;57.20;;;;;;1544136;75;1920;-63
2023/04/20 00:11:51;;;;;;;;;;;21.60;57.00;;;;;;1547703;76;763;-63
2023/04/20 00:13:52;;;;;;;;;;;21.60;57.30;;;;;;1547635;75;668;-61
2023/04/20 00:15:54;;;;;;;;;;;21.50;57.20;;;;;;1554409;75;1262;-62
2023/04/20 00:17:56;;;;;;;;;;;21.50;57.10;;;;;;1564499;75;725;-61
2023/04/20 00:19:58;;;;;;;;;;;21.60;57.10;;;;;;1547473;75;1532;-61
2023/04/20 00:22:00;;;;;;;;;;;21.50;57.00;;;;;;1536446;75;727;-63
2023/04/20 00:24:02;;;;;;;;;;;21.60;57.10;;;;;;1539187;76;630;-61
2023/04/20 00:26:04;;;;;;;;;;;21.50;57.10;;;;;;1533125;75;565;-60
2023/04/20 00:28:06;;;;;;;;;;;21.60;57.20;;;;;;1555988;75;710;-61
2023/04/20 00:30:09;;;;;;;;;;;21.50;57.10;;;;;;1544151;75;1917;-61
2023/04/20 00:32:11;;;;;;;;;;;21.50;57.50;;;;;;1542386;75;670;-62
2023/04/20 00:34:13;;;;;;;;;;;21.50;57.40;;;;;;1551193;75;1534;-61
2023/04/20 00:36:15;;;;;;;;;;;21.50;57.50;;;;;;1554858;75;842;-61
2023/04/20 00:38:16;;;;;;;;;;;21.50;57.40;;;;;;1561718;75;747;-62
2023/04/20 00:40:18;;;;;;;;;;;21.50;57.40;;;;;;1544958;75;712;-62
2023/04/20 00:42:20;;;;;;;;;;;21.50;57.40;;;;;;1537586;75;793;-63
2023/04/20 00:44:22;;;;;;;;;;;21.50;57.40;;;;;;1548821;75;1149;-63
2023/04/20 00:46:24;;;;;;;;;;;21.50;57.10;;;;;;1527407;76;704;-62
2023/04/20 00:48:26;;;;;;;;;;;21.70;57.10;;;;;;1540086;75;1943;-63
2023/04/20 00:50:28;;;;;;;;;;;21.50;56.80;;;;;;1562600;75;730;-62
2023/04/20 00:52:30;;;;;;;;;;;21.60;56.80;;;;;;1495396;77;671;-63
2023/04/20 00:54:32;;;;;;;;;;;21.60;57.00;;;;;;1509723;77;1212;-62
2023/04/20 00:56:34;;;;;;;;;;;21.60;56.90;;;;;;1511889;77;752;-64
2023/04/20 00:58:36;;;;;;;;;;;21.60;56.70;;;;;;1518834;77;756;-63
2023/04/20 01:00:39;;;;;;;;;;;21.70;56.80;;;;;;1539809;75;752;-63
2023/04/20 01:02:41;;;;;;;;;;;21.70;56.60;;;;;;1547133;75;1527;-64
2023/04/20 01:04:43;;;;;;;;;;;21.70;56.50;;;;;;1562022;75;1266;-62
2023/04/20 01:06:45;;;;;;;;;;;21.70;56.50;;;;;;1561881;75;689;-62
2023/04/20 01:08:50;;;;;;;;;;;21.80;56.40;;;;;;1558684;75;1922;-63
2023/04/20 01:10:52;;;;;;;;;;;21.70;56.60;;;;;;1561251;74;843;-63
2023/04/20 01:12:54;;;;;;;;;;;21.70;56.70;;;;;;1557274;74;735;-63
2023/04/20 01:14:56;;;;;;;;;;;21.60;56.60;;;;;;1564324;74;1165;-62
2023/04/20 01:16:58;;;;;;;;;;;21.60;56.60;;;;;;1570950;74;1531;-63
2023/04/20 01:19:00;;;;;;;;;;;21.70;56.60;;;;;;1576792;74;669;-63
2023/04/20 01:21:02;;;;;;;;;;;21.70;56.50;;;;;;1550348;75;794;-62
2023/04/20 01:23:04;;;;;;;;;;;21.60;56.40;;;;;;1560879;75;734;-62
2023/04/20 01:25:06;;;;;;;;;;;21.70;56.50;;;;;;1564047;74;1098;-63
2023/04/20 01:27:08;;;;;;;;;;;21.70;56.50;;;;;;1560773;74;750;-62
2023/04/20 01:29:10;;;;;;;;;;;21.60;56.30;;;;;;1570377;75;1945;-62
2023/04/20 01:31:12;;;;;;;;;;;21.60;56.30;;;;;;1544554;74;1354;-62
2023/04/20 01:33:14;;;;;;;;;;;21.70;56.20;;;;;;1554164;75;747;-61
2023/04/20 01:35:16;;;;;;;;;;;21.70;56.10;;;;;;1561265;75;1123;-62
2023/04/20 01:37:18;;;;;;;;;;;21.70;56.00;;;;;;1561118;74;733;-62
2023/04/20 01:39:20;;;;;;;;;;;21.70;55.90;;;;;;1562142;75;759;-62
2023/04/20 01:41:22;;;;;;;;;;;21.70;55.80;;;;;;1553385;75;772;-61
2023/04/20 01:43:24;;;;;;;;;;;21.70;55.80;;;;;;1561446;75;678;-60
2023/04/20 01:45:25;;;;;;;;;;;21.80;55.70;;;;;;1562367;75;1592;-62
2023/04/20 01:47:28;;;;;;;;;;;21.80;55.60;;;;;;1563544;75;692;-61
2023/04/20 01:49:30;;;;;;;;;;;21.80;55.50;;;;;;1555441;75;1928;-61
2023/04/20 01:51:33;;;;;;;;;;;21.80;55.20;;;;;;1561693;74;726;-63
2023/04/20 01:53:35;;;;;;;;;;;21.90;55.10;;;;;;1555456;75;724;-62
2023/04/20 01:55:37;;;;;;;;;;;21.90;55.00;;;;;;1569441;75;1101;-61
2023/04/20 01:57:38;;;;;;;;;;;21.90;55.40;;;;;;1561173;75;1560;-62
2023/04/20 01:59:40;;;;;;;;;;;21.90;55.50;;;;;;1559782;75;736;-62
2023/04/20 02:01:42;;;;;;;;;;;21.80;55.90;;;;;;1564849;74;671;-62
2023/04/20 02:03:44;;;;;;;;;;;21.80;55.80;;;;;;1549271;75;715;-62
2023/04/20 02:05:46;;;;;;;;;;;21.80;55.80;;;;;;1563844;74;1180;-61
2023/04/20 02:07:48;;;;;;;;;;;21.90;55.70;;;;;;1565509;74;794;-61
2023/04/20 02:09:50;;;;;;;;;;;21.90;55.50;;;;;;1554587;74;1946;-63
2023/04/20 02:11:52;;;;;;;;;;;22.00;55.40;;;;;;1558220;75;1308;-63
2023/04/20 02:13:54;;;;;;;;;;;22.00;55.40;;;;;;1557139;74;740;-63
2023/04/20 02:15:55;;;;;;;;;;;21.90;55.50;;;;;;1562406;74;1145;-62
2023/04/20 02:17:57;;;;;;;;;;;21.80;55.60;;;;;;1560108;74;710;-62
2023/04/20 02:19:59;;;;;;;;;;;21.80;55.70;;;;;;1566139;74;705;-62
2023/04/20 02:22:01;;;;;;;;;;;21.80;55.90;;;;;;1561301;74;663;-60
2023/04/20 02:24:04;;;;;;;;;;;21.70;56.00;;;;;;1562476;74;1155;-61
2023/04/20 02:26:05;;;;;;;;;;;21.70;56.40;;;;;;1557085;75;1553;-61
2023/04/20 02:28:07;;;;;;;;;;;21.60;56.60;;;;;;1554565;74;675;-61
2023/04/20 02:30:10;;;;;;;;;;;21.60;56.70;;;;;;1573517;74;1932;-60
2023/04/20 02:32:11;;;;;;;;;;;21.50;56.80;;;;;;1557389;74;691;-62
2023/04/20 02:34:13;;;;;;;;;;;21.50;56.80;;;;;;1563730;74;1118;-62
2023/04/20 02:36:15;;;;;;;;;;;21.50;56.60;;;;;;1561694;75;707;-63
2023/04/20 02:38:17;;;;;;;;;;;21.50;56.80;;;;;;1559545;74;846;-61
2023/04/20 02:40:19;;;;;;;;;;;21.50;56.80;;;;;;1558599;74;1537;-62
2023/04/20 02:42:21;;;;;;;;;;;21.50;56.80;;;;;;1554597;74;792;-63
2023/04/20 02:44:23;;;;;;;;;;;21.50;56.90;;;;;;1552425;74;1091;-62
2023/04/20 02:46:25;;;;;;;;;;;21.40;56.80;;;;;;1559900;75;782;-62
2023/04/20 02:48:27;;;;;;;;;;;21.40;56.80;;;;;;1559481;75;744;-61
2023/04/20 02:50:29;;;;;;;;;;;21.40;56.70;;;;;;1562788;75;1953;-63
2023/04/20 02:52:31;;;;;;;;;;;21.40;56.80;;;;;;1556120;74;789;-63
2023/04/20 02:54:33;;;;;;;;;;;21.40;56.80;;;;;;1550437;75;1382;-61
2023/04/20 02:56:35;;;;;;;;;;;21.40;56.80;;;;;;1557251;75;718;-64
2023/04/20 02:58:37;;;;;;;;;;;21.40;56.70;;;;;;1542655;75;740;-62
2023/04/20 03:00:39;;;;;;;;;;;21.50;56.70;;;;;;1551034;75;716;-61
2023/04/20 03:02:41;;;;;;;;;;;21.50;56.80;;;;;;1553256;75;706;-62
2023/04/20 03:04:42;;;;;;;;;;;21.50;56.80;;;;;;1560725;75;1156;-61
2023/04/20 03:06:44;;;;;;;;;;;21.40;56.70;;;;;;1559731;75;674;-61
2023/04/20 03:08:46;;;;;;;;;;;21.40;56.80;;;;;;1555116;75;1554;-61
2023/04/20 03:10:48;;;;;;;;;;;21.40;56.80;;;;;;1558280;75;1941;-62
2023/04/20 03:12:50;;;;;;;;;;;21.40;56.80;;;;;;1555590;75;708;-61
2023/04/20 03:14:52;;;;;;;;;;;21.30;57.10;;;;;;1549389;75;1204;-62
2023/04/20 03:16:54;;;;;;;;;;;21.40;57.40;;;;;;1564349;75;647;-62
2023/04/20 03:18:56;;;;;;;;;;;21.40;57.40;;;;;;1563264;75;713;-63
2023/04/20 03:20:58;;;;;;;;;;;21.30;57.70;;;;;;1554379;75;683;-62
2023/04/20 03:23:00;;;;;;;;;;;21.30;57.70;;;;;;1554120;75;1527;-61
2023/04/20 03:25:01;;;;;;;;;;;21.40;57.60;;;;;;1557631;75;1158;-63
2023/04/20 03:27:03;;;;;;;;;;;21.40;57.60;;;;;;1562887;75;729;-62
2023/04/20 03:29:05;;;;;;;;;;;21.40;57.30;;;;;;1556672;75;797;-62
2023/04/20 03:31:07;;;;;;;;;;;21.40;57.20;;;;;;1554474;75;1940;-63
2023/04/20 03:33:09;;;;;;;;;;;21.50;57.30;;;;;;1553231;75;714;-62
2023/04/20 03:35:11;;;;;;;;;;;21.50;57.10;;;;;;1558747;75;1160;-62
2023/04/20 03:37:14;;;;;;;;;;;21.50;57.20;;;;;;1559971;75;1358;-62
2023/04/20 03:39:16;;;;;;;;;;;21.50;57.00;;;;;;1558212;75;779;-62
2023/04/20 03:41:18;;;;;;;;;;;21.50;56.90;;;;;;1556783;75;757;-62
2023/04/20 03:43:19;;;;;;;;;;;21.60;57.10;;;;;;1559062;75;696;-62
2023/04/20 03:45:21;;;;;;;;;;;21.60;57.10;;;;;;1556879;75;1156;-62
2023/04/20 03:47:23;;;;;;;;;;;21.50;56.70;;;;;;1555060;75;794;-62
2023/04/20 03:49:25;;;;;;;;;;;21.50;56.60;;;;;;1557553;75;623;-62
2023/04/20 03:51:27;;;;;;;;;;;21.60;57.20;;;;;;1554441;75;1927;-62
2023/04/20 03:53:29;;;;;;;;;;;21.60;57.20;;;;;;1563183;75;746;-62
2023/04/20 03:55:31;;;;;;;;;;;21.60;57.00;;;;;;1556970;75;1145;-63
2023/04/20 03:57:33;;;;;;;;;;;21.70;56.80;;;;;;1560573;75;701;-62
2023/04/20 03:59:35;;;;;;;;;;;21.60;56.60;;;;;;1557489;75;722;-61
2023/04/20 04:01:38;;;;;;;;;;;21.70;56.60;;;;;;1556122;75;732;-62
2023/04/20 04:03:39;;;;;;;;;;;21.70;56.50;;;;;;1552622;75;689;-62
2023/04/20 04:05:41;;;;;;;;;;;21.80;56.10;;;;;;1553490;75;1590;-62
2023/04/20 04:07:43;;;;;;;;;;;21.80;56.00;;;;;;1552006;75;704;-61
2023/04/20 04:09:45;;;;;;;;;;;21.90;56.00;;;;;;1569651;74;1951;-62
2023/04/20 04:11:47;;;;;;;;;;;21.80;55.90;;;;;;1562002;75;790;-63
2023/04/20 04:13:49;;;;;;;;;;;21.80;55.80;;;;;;1560991;74;643;-62
2023/04/20 04:15:51;;;;;;;;;;;21.70;55.80;;;;;;1563591;75;1206;-62
2023/04/20 04:17:55;;;;;;;;;;;21.80;56.00;;;;;;1555209;75;792;-61
2023/04/20 04:19:57;;;;;;;;;;;21.70;56.10;;;;;;1556040;74;1744;-63
2023/04/20 04:21:59;;;;;;;;;;;21.70;56.30;;;;;;1558505;74;753;-62
2023/04/20 04:24:02;;;;;;;;;;;21.70;56.20;;;;;;1566640;75;640;-62
2023/04/20 04:26:04;;;;;;;;;;;21.60;56.40;;;;;;1565031;74;634;-62
2023/04/20 04:28:06;;;;;;;;;;;21.60;56.60;;;;;;1561580;75;843;-63
2023/04/20 04:30:09;;;;;;;;;;;21.50;56.70;;;;;;1565103;74;1927;-63
2023/04/20 04:32:12;;;;;;;;;;;21.60;56.80;;;;;;1547272;75;658;-62
2023/04/20 04:34:14;;;;;;;;;;;21.60;56.80;;;;;;1562305;75;1640;-61
2023/04/20 04:36:16;;;;;;;;;;;21.60;56.70;;;;;;1554133;75;676;-62
2023/04/20 04:38:18;;;;;;;;;;;21.60;56.50;;;;;;1568420;75;810;-62
2023/04/20 04:40:20;;;;;;;;;;;21.60;56.30;;;;;;1560926;74;611;-62
2023/04/20 04:42:24;;;;;;;;;;;21.70;56.20;;;;;;1562640;75;726;-61
2023/04/20 04:44:27;;;;;;;;;;;21.70;56.00;;;;;;1561540;75;1123;-60
2023/04/20 04:46:29;;;;;;;;;;;21.80;55.90;;;;;;1560893;74;1577;-63
2023/04/20 04:48:31;;;;;;;;;;;21.80;55.80;;;;;;1550480;75;719;-62
2023/04/20 04:50:34;;;;;;;;;;;21.80;55.90;;;;;;1559799;74;1918;-63
2023/04/20 04:52:39;;;;;;;;;;;21.70;55.90;;;;;;1560470;75;691;-62
2023/04/20 04:54:41;;;;;;;;;;;21.70;56.30;;;;;;1558168;75;1109;-61
2023/04/20 04:56:43;;;;;;;;;;;21.70;56.30;;;;;;1566571;74;661;-62
2023/04/20 05:00:57;;;;;;;;;;;21.60;56.00;;;;;;1568896;74;2166;-62
2023/04/20 05:03:00;;;;;;;;;;;21.70;55.90;;;;;;1578471;74;672;-63
2023/04/20 05:05:02;;;;;;;;;;;21.70;55.70;;;;;;1550686;75;1186;-62
2023/04/20 05:07:04;;;;;;;;;;;21.70;55.50;;;;;;1570115;74;1925;-61
2023/04/20 05:09:06;;;;;;;;;;;21.80;55.50;;;;;;1567620;74;861;-62
2023/04/20 05:13:18;;;;;;;;;;;21.90;55.20;;;;;;1568215;74;696;-62
2023/04/20 05:15:25;;;;;;;;;;;21.90;55.10;;;;;;1572823;74;1606;-63
2023/04/20 05:17:28;;;;;;;;;;;22.00;55.00;;;;;;1555388;74;1749;-62
2023/04/20 05:19:31;;;;;;;;;;;22.00;54.70;;;;;;1549989;74;687;-63
2023/04/20 05:21:35;;;;;;;;;;;22.00;54.60;;;;;;1575321;74;700;-62
2023/04/20 05:23:44;;;;;;;;;;;22.00;54.60;;;;;;1570690;74;813;-64
2023/04/20 05:25:47;;;;;;;;;;;22.00;54.50;;;;;;1575842;74;1144;-62
2023/04/20 05:27:50;;;;;;;;;;;22.00;54.40;;;;;;1576632;74;697;-62
2023/04/20 05:29:52;;;;;;;;;;;22.00;54.40;;;;;;1572032;74;1506;-60
2023/04/20 05:31:54;;;;;;;;;;;22.00;54.40;;;;;;1572575;74;1922;-62
2023/04/20 05:33:55;;;;;;;;;;;22.00;54.30;;;;;;1557326;74;678;-61
2023/04/20 05:35:57;;;;;;;;;;;22.00;54.40;;;;;;1582367;74;1076;-62
2023/04/20 05:38:01;;;;;;;;;;;22.00;54.50;;;;;;1581931;74;755;-62
2023/04/20 05:40:03;;;;;;;;;;;21.90;54.90;;;;;;1564137;74;708;-61
2023/04/20 05:42:05;;;;;;;;;;;21.90;54.90;;;;;;1570862;74;776;-62
2023/04/20 05:44:07;;;;;;;;;;;21.90;55.00;;;;;;1573380;74;1408;-62
2023/04/20 05:46:09;;;;;;;;;;;21.90;55.00;;;;;;1570575;74;822;-61
2023/04/20 05:48:11;;;;;;;;;;;21.90;55.20;;;;;;1575541;74;674;-63
2023/04/20 05:50:12;;;;;;;;;;;21.80;55.20;;;;;;1572421;74;693;-64
2023/04/20 05:52:14;;;;;;;;;;;21.70;55.40;;;;;;1573238;74;748;-64
2023/04/20 05:54:16;;;;;;;;;;;21.70;55.60;;;;;;1574352;74;1112;-63
2023/04/20 05:56:18;;;;;;;;;;;21.60;55.70;;;;;;1575051;74;710;-63
2023/04/20 05:58:20;;;;;;;;;;;21.60;55.80;;;;;;1576167;74;1657;-62
2023/04/20 06:00:23;;;;;;;;;;;21.60;56.00;;;;;;1576829;74;689;-63
2023/04/20 06:02:25;;;;;;;;;;;21.60;56.10;;;;;;1579792;74;808;-64
2023/04/20 06:04:27;;;;;;;;;;;21.60;56.10;;;;;;1578460;74;1151;-62
2023/04/20 06:06:28;;;;;;;;;;;21.60;56.20;;;;;;1568397;74;1070;-61
2023/04/20 06:08:30;;;;;;;;;;;21.50;56.20;;;;;;1559383;75;706;-63
2023/04/20 06:10:33;;;;;;;;;;;21.60;56.30;;;;;;1555506;75;1930;-63
2023/04/20 06:12:35;;;;;;;;;;;21.50;56.30;;;;;;1564386;75;1660;-63
2023/04/20 06:14:36;;;;;;;;;;;21.50;56.40;;;;;;1561883;75;1224;-63
2023/04/20 06:16:38;;;;;;;;;;;21.50;56.50;;;;;;1567140;75;742;-63
2023/04/20 06:18:40;;;;;;;;;;;21.50;56.50;;;;;;1559025;75;687;-62
2023/04/20 06:20:45;;;;;;;;;;;21.50;56.50;;;;;;1558218;75;687;-61
2023/04/20 06:22:47;;;;;;;;;;;21.50;56.50;;;;;;1557335;75;725;-62
2023/04/20 06:24:49;;;;;;;;;;;21.50;56.50;;;;;;1557103;75;1308;-62
2023/04/20 06:26:51;;;;;;;;;;;21.50;56.40;;;;;;1559867;75;776;-62
2023/04/20 06:28:53;;;;;;;;;;;21.50;56.40;;;;;;1558850;75;788;-62
2023/04/20 06:30:54;;;;;;;;;;;21.50;56.30;;;;;;1556417;75;1939;-62
2023/04/20 06:32:56;;;;;;;;;;;21.60;56.20;;;;;;1556497;75;776;-62
2023/04/20 06:34:58;;;;;;;;;;;21.60;56.20;;;;;;1559227;75;1140;-63
2023/04/20 06:37:00;;;;;;;;;;;21.60;56.10;;;;;;1561419;75;695;-63
2023/04/20 06:39:02;;;;;;;;;;;21.60;55.90;;;;;;1558714;75;1554;-63
2023/04/20 06:41:04;;;;;;;;;;;21.70;55.80;;;;;;1558931;75;766;-63
2023/04/20 06:43:06;;;;;;;;;;;21.80;55.70;;;;;;1560454;75;892;-63
2023/04/20 06:45:08;;;;;;;;;;;21.70;55.60;;;;;;1558396;75;1107;-62
2023/04/20 06:47:10;;;;;;;;;;;21.80;55.70;;;;;;1558074;75;656;-64
2023/04/20 06:49:12;;;;;;;;;;;21.80;56.00;;;;;;1554567;75;756;-63
2023/04/20 06:51:14;;;;;;;;;;;21.90;56.20;;;;;;1557679;75;1936;-62
2023/04/20 06:53:16;;;;;;;;;;;21.80;56.70;;;;;;1554276;75;1565;-62
2023/04/20 06:55:17;;;;;;;;;;;21.80;57.00;;;;;;1558285;75;1094;-62
2023/04/20 06:57:19;;;;;;;;;;;21.70;57.10;;;;;;1558892;75;831;-60
2023/04/20 06:59:21;;;;;;;;;;;21.70;57.30;;;;;;1559329;75;863;-62
2023/04/20 07:01:23;;;;;;;;;;;21.70;57.20;;;;;;1559564;76;756;-64
2023/04/20 07:03:25;;;;;;;;;;;21.60;57.30;;;;;;1559049;75;665;-63
2023/04/20 07:05:30;;;;;;;;;;;21.70;57.30;;;;;;1558524;75;1154;-61
2023/04/20 07:07:32;;;;;;;;;;;21.70;57.50;;;;;;1560766;75;1531;-63
2023/04/20 07:09:34;;;;;;;;;;;21.70;57.80;;;;;;1565545;74;661;-62
2023/04/20 07:11:36;;;;;;;;;;;21.70;57.80;;;;;;1564921;74;1915;-63
2023/04/20 07:13:38;;;;;;;;;;;21.80;57.40;;;;;;1560489;75;808;-63
2023/04/20 07:15:40;;;;;;;;;;;21.70;57.10;;;;;;1560531;75;1184;-64
2023/04/20 07:17:41;;;;;;;;;;;21.80;56.80;;;;;;1562604;74;746;-63
2023/04/20 07:19:43;;;;;;;;;;;21.80;56.40;;;;;;1566738;74;757;-64
2023/04/20 07:21:45;;;;;;;;;;;21.90;56.30;;;;;;1560395;74;1575;-64
2023/04/20 07:23:47;;;;;;;;;;;21.90;56.00;;;;;;1544286;74;714;-63
2023/04/20 07:25:49;;;;;;;;;;;21.90;55.90;;;;;;1554388;75;1168;-63
2023/04/20 07:27:51;;;;;;;;;;;21.80;55.60;;;;;;1574175;74;813;-64
2023/04/20 07:29:53;;;;;;;;;;;21.90;55.50;;;;;;1567485;74;766;-62
2023/04/20 07:31:55;;;;;;;;;;;21.90;55.40;;;;;;1568530;74;1954;-64
2023/04/20 07:33:57;;;;;;;;;;;22.00;55.00;;;;;;1553607;74;687;-63
2023/04/20 07:35:59;;;;;;;;;;;22.00;54.80;;;;;;1563875;74;1577;-63
2023/04/20 07:38:01;;;;;;;;;;;22.10;54.70;;;;;;1555838;74;709;-63
2023/04/20 07:40:07;;;;;;;;;;;22.10;54.50;;;;;;1563349;74;658;-62
2023/04/20 07:42:06;;;;;;;;;;;22.10;54.40;;;;;;1569995;74;1280;-63
2023/04/20 07:44:08;;;;;;;;;;;22.20;54.30;;;;;;1545767;74;1073;-63
2023/04/20 07:46:10;;;;;;;;;;;22.10;54.30;;;;;;1570892;74;745;-63
2023/04/20 07:48:12;;;;;;;;;;;22.10;54.20;;;;;;1559898;75;753;-64
2023/04/20 07:50:14;;;;;;;;;;;22.10;54.10;;;;;;1560200;74;1377;-62
2023/04/20 07:52:17;;;;;;;;;;;22.20;54.10;;;;;;1574764;74;1934;-62
2023/04/20 07:54:19;;;;;;;;;;;22.20;54.10;;;;;;1565302;74;1156;-63
2023/04/20 07:56:21;;;;;;;;;;;22.20;54.20;;;;;;1548036;74;745;-63
2023/04/20 07:58:23;;;;;;;;;;;22.20;54.20;;;;;;1558940;74;774;-63
2023/04/20 08:00:25;;;;;;;;;;;22.10;54.30;;;;;;1562406;74;735;-64
2023/04/20 08:02:27;;;;;;;;;;;22.20;54.30;;;;;;1566658;74;752;-63
2023/04/20 08:04:28;;;;;;;;;;;22.20;54.40;;;;;;1576792;75;1569;-63
2023/04/20 08:06:30;;;;;;;;;;;22.20;54.40;;;;;;1566056;75;777;-63
2023/04/20 08:08:32;;;;;;;;;;;22.10;54.50;;;;;;1569891;74;1112;-63
2023/04/20 08:10:34;;;;;;;;;;;22.10;54.70;;;;;;1563743;74;766;-64
2023/04/20 08:12:38;;;;;;;;;;;22.20;54.90;;;;;;1565945;74;1931;-64
2023/04/20 08:14:40;;;;;;;;;;;22.20;55.60;;;;;;1573414;74;1196;-63
2023/04/20 08:16:42;;;;;;;;;;;22.10;56.40;;;;;;1569026;74;700;-64
2023/04/20 08:18:44;;;;;;;;;;;22.10;56.50;;;;;;1569937;74;1614;-64
2023/04/20 08:20:45;;;;;;;;;;;22.10;57.10;;;;;;1576290;74;650;-64
2023/04/20 08:22:48;;;;;;;;;;;22.10;57.10;;;;;;1560650;74;692;-63
2023/04/20 08:24:50;;;;;;;;;;;22.20;56.90;;;;;;1570894;74;1196;-65
2023/04/20 08:26:52;;;;;;;;;;;22.20;56.80;;;;;;1566205;74;776;-64
2023/04/20 08:28:53;;;;;;;;;;;22.20;56.70;;;;;;1557806;74;786;-65
2023/04/20 08:30:55;;;;;;;;;;;22.20;56.70;;;;;;1569784;74;740;-64
2023/04/20 08:32:57;;;;;;;;;;;22.20;56.70;;;;;;1565356;74;1949;-64
2023/04/20 08:34:59;;;;;;;;;;;22.20;56.60;;;;;;1556245;74;1162;-63
2023/04/20 08:37:01;;;;;;;;;;;22.10;56.60;;;;;;1578786;74;687;-63
2023/04/20 08:39:07;;;;;;;;;;;22.20;56.60;;;;;;1568728;74;905;-64
2023/04/20 08:41:12;;;;;;;;;;;22.20;56.50;;;;;;1561971;74;751;-64
2023/04/20 08:43:12;;;;;;;;;;;22.20;56.70;;;;;;1570044;74;1561;-64
2023/04/20 08:45:14;;;;;;;;;;;22.10;56.60;;;;;;1567309;74;1191;-64
2023/04/20 08:47:16;;;;;;;;;;;22.10;56.50;;;;;;1567728;74;1643;-64
2023/04/20 08:49:18;;;;;;;;;;;22.20;56.50;;;;;;1544271;74;819;-64
2023/04/20 08:51:20;;;;;;;;;;;22.20;56.50;;;;;;1569429;74;796;-64
2023/04/20 08:53:22;;;;;;;;;;;22.10;56.40;;;;;;1569568;74;709;-64
2023/04/20 08:55:24;;;;;;;;;;;22.20;56.40;;;;;;1570770;74;1171;-64
2023/04/20 08:57:26;;;;;;;;;;;22.20;56.30;;;;;;1572268;74;794;-64
2023/04/20 08:59:27;;;;;;;;;;;22.20;56.30;;;;;;1578322;74;814;-64
2023/04/20 09:01:29;;;;;;;;;;;22.10;56.40;;;;;;1560127;74;1817;-64
2023/04/20 09:03:38;;;;;;;;;;;22.10;56.40;;;;;;1566829;74;778;-64
2023/04/20 09:05:40;;;;;;;;;;;22.10;56.30;;;;;;1567634;74;1192;-64
2023/04/20 09:07:44;;;;;;;;;;;22.10;56.40;;;;;;1572217;74;791;-65
2023/04/20 09:09:50;;;;;;;;;;;22.00;56.20;;;;;;1565371;74;1674;-64
2023/04/20 09:12:05;;;;;;;;;;;22.10;56.20;;;;;;1564564;74;2094;-64
2023/04/20 09:14:11;;;;;;;;;;;22.10;56.30;;;;;;1567010;74;1522;-64
2023/04/20 09:16:14;;;;;;;;;;;22.10;56.20;;;;;;1569461;74;676;-64
2023/04/20 09:18:16;;;;;;;;;;;22.10;56.20;;;;;;1566603;74;749;-64
2023/04/20 09:20:19;;;;;;;;;;;22.10;56.20;;;;;;1570539;74;792;-64
2023/04/20 09:22:32;;;;;;;;;;;22.10;56.30;;;;;;1548962;74;1822;-64
2023/04/20 09:24:35;;;;;;;;;;;22.00;56.20;;;;;;1568252;74;1801;-64
2023/04/20 09:26:37;;;;;;;;;;;22.00;56.30;;;;;;1565606;74;739;-65
2023/04/20 09:28:38;;;;;;;;;;;22.00;56.30;;;;;;1576843;74;1552;-64
2023/04/20 09:30:41;;;;;;;;;;;22.00;56.30;;;;;;1565493;74;683;-64
2023/04/20 09:32:43;;;;;;;;;;;22.00;56.30;;;;;;1569908;74;1916;-64
2023/04/20 09:34:45;;;;;;;;;;;21.90;56.30;;;;;;1580432;74;1221;-61
2023/04/20 09:36:53;;;;;;;;;;;21.90;56.40;;;;;;1570686;74;603;-64
2023/04/20 09:39:08;;;;;;;;;;;21.90;56.40;;;;;;1567309;74;1689;-64
2023/04/20 09:41:09;;;;;;;;;;;22.00;56.40;;;;;;1565786;74;682;-64
2023/04/20 09:43:13;;;;;;;;;;;21.90;56.60;;;;;;1570636;74;1622;-64
2023/04/20 09:45:15;;;;;;;;;;;21.90;56.50;;;;;;1565557;74;1774;-64
2023/04/20 09:47:17;;;;;;;;;;;22.00;56.50;;;;;;1561956;74;798;-64
2023/04/20 09:49:20;;;;;;;;;;;21.90;56.40;;;;;;1567251;74;731;-64
2023/04/20 09:51:22;;;;;;;;;;;21.90;56.40;;;;;;1554047;74;729;-64
2023/04/20 09:53:24;;;;;;;;;;;22.00;56.30;;;;;;1563787;74;1925;-64
2023/04/20 09:55:26;;;;;;;;;;;21.90;56.30;;;;;;1553523;74;1148;-64
2023/04/20 09:57:27;;;;;;;;;;;22.00;56.30;;;;;;1560060;74;1325;-64
2023/04/20 09:59:31;;;;;;;;;;;22.00;56.20;;;;;;1571060;74;694;-64
2023/04/20 10:01:34;;;;;;;;;;;22.00;56.10;;;;;;1561105;74;1525;-64
2023/04/20 10:03:36;;;;;;;;;;;22.00;56.10;;;;;;1559895;75;1480;-64
2023/04/20 10:05:38;;;;;;;;;;;21.90;56.10;;;;;;1556470;75;1514;-64
2023/04/20 10:07:40;;;;;;;;;;;21.90;56.10;;;;;;1560231;75;1505;-64
2023/04/20 10:09:42;;;;;;;;;;;21.90;56.10;;;;;;1555636;75;1269;-64
2023/04/20 10:11:44;;;;;;;;;;;21.90;56.10;;;;;;1555636;75;1654;-64
2023/04/20 10:13:46;;;;;;;;;;;21.90;56.10;;;;;;1557021;75;1911;-64
2023/04/20 10:15:48;;;;;;;;;;;21.90;56.00;;;;;;1559023;75;1539;-64
2023/04/20 10:17:50;;;;;;;;;;;21.90;56.00;;;;;;1555582;75;1258;-64
2023/04/20 10:19:53;;;;;;;;;;;21.90;56.10;;;;;;1557477;75;1093;-64
2023/04/20 10:21:55;;;;;;;;;;;21.90;56.30;;;;;;1553570;75;1481;-64
2023/04/20 10:23:59;;;;;;;;;;;21.90;56.40;;;;;;1556615;75;1532;-64
2023/04/20 10:26:01;;;;;;;;;;;21.90;56.80;;;;;;1555993;75;1650;-64
2023/04/20 10:28:05;;;;;;;;;;;21.90;57.20;;;;;;1556482;75;1160;-64
2023/04/20 10:30:09;;;;;;;;;;;21.90;57.60;;;;;;1559475;75;1035;-64
2023/04/20 10:32:28;;;;;;;;;;;21.90;58.10;;;;;;1558043;75;1931;-64
2023/04/20 10:34:30;;;;;;;;;;;21.80;58.70;;;;;;1557070;75;1105;-64
2023/04/20 10:36:36;;;;;;;;;;;21.80;59.00;;;;;;1558708;75;1181;-64
2023/04/20 10:38:38;;;;;;;;;;;21.80;59.20;;;;;;1553735;75;1498;-64
2023/04/20 10:40:39;;;;;;;;;;;21.80;59.50;;;;;;1556946;75;1089;-64
2023/04/20 10:42:42;;;;;;;;;;;21.80;59.60;;;;;;1558374;75;1095;-64
2023/04/20 10:44:50;;;;;;;;;;;21.80;59.70;;;;;;1559675;75;1126;-64
2023/04/20 10:46:52;;;;;;;;;;;21.80;60.00;;;;;;1557931;75;1073;-64
2023/04/20 10:48:57;;;;;;;;;;;21.80;59.80;;;;;;1556946;75;1169;-64
2023/04/20 10:51:01;;;;;;;;;;;21.80;59.80;;;;;;1553843;75;1533;-64
2023/04/20 10:53:03;;;;;;;;;;;21.80;59.80;;;;;;1554487;75;1920;-64
2023/04/20 10:55:05;;;;;;;;;;;21.80;59.70;;;;;;1556274;75;1208;-64
2023/04/20 10:57:07;;;;;;;;;;;21.80;59.70;;;;;;1556651;76;1145;-64
2023/04/20 10:59:10;;;;;;;;;;;21.90;59.70;;;;;;1558550;75;1145;-64
2023/04/20 11:01:12;;;;;;;;;;;21.80;59.60;;;;;;1557588;75;1105;-64
2023/04/20 11:03:14;;;;;;;;;;;21.80;59.60;;;;;;1558299;75;1076;-64
2023/04/20 11:05:16;;;;;;;;;;;21.80;59.50;;;;;;1556015;75;1533;-64
2023/04/20 11:07:19;;;;;;;;;;;21.70;59.60;;;;;;1557624;75;1532;-64
2023/04/20 11:09:22;;;;;;;;;;;21.80;59.50;;;;;;1558208;75;1099;-64
2023/04/20 11:11:26;;;;;;;;;;;21.80;59.50;;;;;;1556906;75;1173;-64
2023/04/20 11:13:29;;;;;;;;;;;21.80;59.40;;;;;;1556325;75;1924;-64
2023/04/20 11:15:31;;;;;;;;;;;21.80;59.30;;;;;;1554612;75;1512;-64
2023/04/20 11:17:33;;;;;;;;;;;21.80;59.30;;;;;;1556464;75;1518;-64
2023/04/20 11:19:35;;;;;;;;;;;21.80;59.20;;;;;;1556424;75;1096;-64
2023/04/20 11:21:41;;;;;;;;;;;21.80;59.20;;;;;;1560066;75;1544;-64
2023/04/20 11:23:43;;;;;;;;;;;21.80;59.20;;;;;;1557977;75;1093;-64
2023/04/20 11:25:49;;;;;;;;;;;21.70;59.20;;;;;;1557556;75;1568;-64
2023/04/20 11:27:51;;;;;;;;;;;21.80;59.10;;;;;;1552588;75;1419;-64
2023/04/20 11:29:57;;;;;;;;;;;21.80;59.10;;;;;;1557858;75;1076;-64
2023/04/20 11:31:59;;;;;;;;;;;21.80;59.10;;;;;;1556366;75;1122;-64
2023/04/20 11:34:01;;;;;;;;;;;21.70;59.10;;;;;;1549756;75;1934;-63
2023/04/20 11:36:03;;;;;;;;;;;21.70;59.40;;;;;;1554853;75;1720;-65
2023/04/20 11:38:05;;;;;;;;;;;21.70;59.30;;;;;;1558170;75;1475;-65
2023/04/20 11:40:09;;;;;;;;;;;21.70;59.20;;;;;;1557778;75;1142;-64
2023/04/20 11:42:11;;;;;;;;;;;21.80;59.20;;;;;;1555872;75;1112;-64
2023/04/20 11:44:14;;;;;;;;;;;21.80;59.10;;;;;;1558063;75;1199;-63
2023/04/20 11:46:16;;;;;;;;;;;21.80;59.10;;;;;;1556182;75;1090;-64
2023/04/20 11:48:18;;;;;;;;;;;21.70;59.10;;;;;;1556622;75;1491;-64
2023/04/20 11:50:20;;;;;;;;;;;21.80;59.00;;;;;;1563501;75;1590;-64
2023/04/20 11:52:22;;;;;;;;;;;21.80;59.10;;;;;;1559982;75;1164;-63
2023/04/20 11:54:26;;;;;;;;;;;21.80;59.00;;;;;;1558796;75;1952;-64
2023/04/20 11:56:27;;;;;;;;;;;21.80;59.00;;;;;;1558019;75;1176;-65
2023/04/20 11:58:29;;;;;;;;;;;21.80;59.00;;;;;;1563092;75;1118;-64
2023/04/20 12:00:31;;;;;;;;;;;21.80;58.90;;;;;;1554936;75;1861;-64
2023/04/20 12:02:33;;;;;;;;;;;21.80;58.90;;;;;;1556308;75;1536;-63
2023/04/20 12:04:35;;;;;;;;;;;21.80;58.80;;;;;;1561193;74;1216;-65
2023/04/20 12:06:37;;;;;;;;;;;21.70;58.90;;;;;;1557210;74;1142;-64
2023/04/20 12:08:39;;;;;;;;;;;21.80;58.80;;;;;;1528059;77;1507;-65
2023/04/20 12:10:41;;;;;;;;;;;21.80;58.70;;;;;;1532375;76;1067;-64
2023/04/20 12:12:42;;;;;;;;;;;21.80;58.60;;;;;;1531889;76;1936;-64